Terminal Aerodrome Forecast
Issued by NWS

Home | Current Version | Previous Version | Text Only | Print | Product List | Glossary On
Versions: 1 2 3 4 5 6 7 8 9 10 11 12 13 14 15 16 17
244
FTUS46 KSTO 091009 AAA
TAFSAC
TAF AMD
KSAC 091009Z 0910/1006 34004KT 6SM BR OVC003
      TEMPO 0912/0916 1 1/2SM -DZ BR OVC001
     FM092100 16006KT 2SM -RA BR OVC010
     FM100000 18007KT 4SM BR OVC015
      TEMPO 1002/1006 4SM -RA OVC015=

USA.gov is the U.S. government's official web portal to all federal, state and local government web resources and services.